createdAt,value
2023-03-02T00:02:05.374Z,9.73
2023-03-02T00:04:46.856Z,11.25
2023-03-02T00:07:22.452Z,11.35
2023-03-02T00:09:50.234Z,9.68
2023-03-02T00:12:17.896Z,9.45
2023-03-02T00:14:45.723Z,9.73
2023-03-02T00:17:13.411Z,9.90
2023-03-02T00:19:40.984Z,9.20
2023-03-02T00:22:10.163Z,9.82
2023-03-02T00:24:38.621Z,9.23
2023-03-02T00:27:06.281Z,10.20
2023-03-02T00:29:33.998Z,9.27
2023-03-02T00:32:03.915Z,8.75
2023-03-02T00:34:34.293Z,9.63
2023-03-02T00:37:02.006Z,9.23
2023-03-02T00:39:30.527Z,8.68
2023-03-02T00:41:58.103Z,9.05
2023-03-02T00:44:25.543Z,8.85
2023-03-02T00:46:53.076Z,8.75
2023-03-02T00:49:20.707Z,8.98
2023-03-02T00:51:48.248Z,9.18
2023-03-02T00:54:15.989Z,9.18
2023-03-02T00:56:44.317Z,8.95
2023-03-02T00:59:26.404Z,8.52
2023-03-02T01:02:01.480Z,8.30
2023-03-02T01:04:35.066Z,9.18
2023-03-02T01:07:06.090Z,8.32
2023-03-02T01:09:34.356Z,8.50
2023-03-02T01:12:01.853Z,9.48
2023-03-02T01:14:29.713Z,8.93
2023-03-02T01:16:57.256Z,12.40
2023-03-02T01:19:24.879Z,9.60
2023-03-02T01:21:52.708Z,8.85
2023-03-02T01:24:20.491Z,9.75
2023-03-02T01:26:48.250Z,9.48
2023-03-02T01:29:16.023Z,9.27
2023-03-02T01:31:43.595Z,9.60
2023-03-02T01:34:11.464Z,8.85
2023-03-02T01:36:45.685Z,9.00
2023-03-02T01:39:16.092Z,8.52
2023-03-02T01:41:45.400Z,8.75
2023-03-02T01:44:44.163Z,8.88
2023-03-02T01:47:14.353Z,8.70
2023-03-02T01:49:46.250Z,8.35
2023-03-02T01:52:15.844Z,8.43
2023-03-02T01:54:49.740Z,8.98
2023-03-02T01:57:22.147Z,9.40
2023-03-02T01:59:53.900Z,8.23
2023-03-02T02:02:21.465Z,8.27
2023-03-02T02:04:50.035Z,7.63
2023-03-02T02:07:17.668Z,8.48
2023-03-02T02:09:48.312Z,8.88
2023-03-02T02:12:18.704Z,7.38
2023-03-02T02:14:47.243Z,7.80
2023-03-02T02:17:16.516Z,8.00
2023-03-02T02:20:07.825Z,8.13
2023-03-02T02:22:48.162Z,7.32
2023-03-02T02:25:47.903Z,7.68
2023-03-02T02:28:20.897Z,7.70
2023-03-02T02:30:51.473Z,8.25
2023-03-02T02:33:22.337Z,8.07
2023-03-02T02:35:54.598Z,7.80
2023-03-02T02:38:24.786Z,8.30
2023-03-02T02:40:59.472Z,8.02
2023-03-02T02:43:29.391Z,7.78
2023-03-02T02:45:58.394Z,7.45
2023-03-02T02:48:31.275Z,7.60
2023-03-02T02:51:03.353Z,7.90
2023-03-02T02:53:40.771Z,8.25
2023-03-02T02:56:09.515Z,7.50
2023-03-02T02:58:51.053Z,7.28
2023-03-02T03:01:25.503Z,6.72
2023-03-02T03:04:04.915Z,7.22
2023-03-02T03:06:42.762Z,7.85
2023-03-02T03:09:11.652Z,7.63
2023-03-02T03:11:43.535Z,7.28
2023-03-02T03:14:16.054Z,6.68
2023-03-02T03:16:45.726Z,7.72
2023-03-02T03:19:23.993Z,7.32
2023-03-02T03:21:55.106Z,7.00
2023-03-02T03:24:23.787Z,7.03
2023-03-02T03:26:51.618Z,7.05
2023-03-02T03:29:20.564Z,7.40
2023-03-02T03:31:48.271Z,7.28
2023-03-02T03:34:15.837Z,6.68
2023-03-02T03:36:44.026Z,7.43
2023-03-02T03:39:12.321Z,6.70
2023-03-02T03:41:40.016Z,7.28
2023-03-02T03:44:08.333Z,7.10
2023-03-02T03:46:36.556Z,6.80
2023-03-02T03:49:04.913Z,7.15
2023-03-02T03:51:35.678Z,6.90
2023-03-02T03:54:05.747Z,6.60
2023-03-02T03:56:36.617Z,7.05
2023-03-02T03:59:07.204Z,6.32
2023-03-02T04:01:38.153Z,7.13
2023-03-02T04:04:09.968Z,6.70
2023-03-02T04:06:37.867Z,7.05
2023-03-02T04:09:06.040Z,6.63
2023-03-02T04:11:35.912Z,7.07
2023-03-02T04:14:04.173Z,6.90
2023-03-02T04:16:32.277Z,6.13
2023-03-02T04:19:00.096Z,6.85
2023-03-02T04:21:27.963Z,7.78
2023-03-02T04:23:55.802Z,6.88
2023-03-02T04:26:23.360Z,6.47
2023-03-02T04:28:51.155Z,7.15
2023-03-02T04:31:18.836Z,6.63
2023-03-02T04:33:46.463Z,6.65
2023-03-02T04:36:14.152Z,7.10
2023-03-02T04:38:41.810Z,7.35
2023-03-02T04:41:09.390Z,6.88
2023-03-02T04:43:36.879Z,6.97
2023-03-02T04:46:04.616Z,6.82
2023-03-02T04:48:32.177Z,6.30
2023-03-02T04:50:59.922Z,6.07
2023-03-02T04:53:27.566Z,6.25
2023-03-02T04:55:55.170Z,6.70
2023-03-02T04:58:22.954Z,6.63
2023-03-02T05:00:50.462Z,6.15
2023-03-02T05:03:18.073Z,6.32
2023-03-02T05:05:45.741Z,6.97
2023-03-02T05:08:14.899Z,6.35
2023-03-02T05:10:42.373Z,6.10
2023-03-02T05:13:09.821Z,6.47
2023-03-02T05:15:40.336Z,6.43
2023-03-02T05:18:10.942Z,6.00
2023-03-02T05:20:39.571Z,6.93
2023-03-02T05:23:10.124Z,6.50
2023-03-02T05:25:38.868Z,6.90
2023-03-02T05:28:06.455Z,6.38
2023-03-02T05:30:37.644Z,5.85
2023-03-02T05:33:05.559Z,5.93
2023-03-02T05:35:33.221Z,6.93
2023-03-02T05:38:00.688Z,6.40
2023-03-02T05:40:28.357Z,7.15
2023-03-02T05:42:55.855Z,6.53
2023-03-02T05:45:29.702Z,7.40
2023-03-02T05:47:57.272Z,8.65
2023-03-02T05:50:25.364Z,9.40
2023-03-02T05:52:53.155Z,9.40
2023-03-02T05:55:21.213Z,7.70
2023-03-02T05:57:51.519Z,7.18
2023-03-02T06:00:19.824Z,6.90
2023-03-02T06:02:47.891Z,6.47
2023-03-02T06:05:18.953Z,6.05
2023-03-02T06:07:46.977Z,5.72
2023-03-02T06:10:14.931Z,6.32
2023-03-02T06:12:42.444Z,6.05
2023-03-02T06:15:10.552Z,5.97
2023-03-02T06:17:38.209Z,5.55
2023-03-02T06:20:10.522Z,6.07
2023-03-02T06:22:43.201Z,5.97
2023-03-02T06:25:12.513Z,5.72
2023-03-02T06:27:40.968Z,5.72
2023-03-02T06:30:11.316Z,5.70
2023-03-02T06:32:38.831Z,6.40
2023-03-02T06:35:07.336Z,6.22
2023-03-02T06:37:35.220Z,7.05
2023-03-02T06:40:08.575Z,8.90
2023-03-02T06:42:36.580Z,9.35
2023-03-02T06:45:04.692Z,6.07
2023-03-02T06:47:33.515Z,5.80
2023-03-02T06:50:01.437Z,5.65
2023-03-02T06:52:28.871Z,6.60
2023-03-02T06:54:56.663Z,6.38
2023-03-02T06:57:24.232Z,7.28
2023-03-02T06:59:51.885Z,6.28
2023-03-02T07:02:19.336Z,5.90
2023-03-02T07:04:46.777Z,6.10
2023-03-02T07:07:14.169Z,6.05
2023-03-02T07:09:41.666Z,6.28
2023-03-02T07:12:09.076Z,6.57
2023-03-02T07:14:36.785Z,7.15
2023-03-02T07:17:05.381Z,5.95
2023-03-02T07:19:33.146Z,7.03
2023-03-02T07:22:00.521Z,6.15
2023-03-02T07:24:28.216Z,6.32
2023-03-02T07:26:55.664Z,6.00
2023-03-02T07:29:23.192Z,5.43
2023-03-02T07:31:57.139Z,5.35
2023-03-02T07:34:25.009Z,5.05
2023-03-02T07:36:53.113Z,5.10
2023-03-02T07:39:21.205Z,4.82
2023-03-02T07:41:48.669Z,5.63
2023-03-02T07:44:16.209Z,5.38
2023-03-02T07:46:43.742Z,5.22
2023-03-02T07:49:11.347Z,4.75
2023-03-02T07:51:38.749Z,5.70
2023-03-02T07:54:06.219Z,5.60
2023-03-02T07:56:33.757Z,5.95
2023-03-02T07:59:01.378Z,6.07
2023-03-02T08:01:28.877Z,6.47
2023-03-02T08:03:56.407Z,6.22
2023-03-02T08:06:23.818Z,6.30
2023-03-02T08:08:51.354Z,6.03
2023-03-02T08:11:19.099Z,6.00
2023-03-02T08:13:46.822Z,6.65
2023-03-02T08:16:16.330Z,6.22
2023-03-02T08:18:44.242Z,5.88
2023-03-02T08:21:17.542Z,6.30
2023-03-02T08:26:15.850Z,5.55
2023-03-02T08:28:45.250Z,6.27
2023-03-02T08:31:13.555Z,6.32
2023-03-02T08:33:41.327Z,5.68
2023-03-02T08:36:16.212Z,5.53
2023-03-02T08:38:44.678Z,6.20
2023-03-02T08:41:15.462Z,6.15
2023-03-02T08:43:43.169Z,7.10
2023-03-02T08:46:12.898Z,6.63
2023-03-02T08:48:40.479Z,5.97
2023-03-02T08:51:11.832Z,6.57
2023-03-02T08:53:44.834Z,6.25
2023-03-02T08:56:25.296Z,6.20
2023-03-02T08:58:54.227Z,5.57
2023-03-02T09:01:28.863Z,6.10
2023-03-02T09:03:57.737Z,5.80
2023-03-02T09:06:25.506Z,6.00
2023-03-02T09:08:53.274Z,6.25
2023-03-02T09:11:20.805Z,6.07
2023-03-02T09:13:48.614Z,6.60
2023-03-02T09:16:16.631Z,6.60
2023-03-02T09:18:44.015Z,6.65
2023-03-02T09:21:11.492Z,5.85
2023-03-02T09:23:38.978Z,6.15
2023-03-02T09:26:06.559Z,5.95
2023-03-02T09:28:34.789Z,6.63
2023-03-02T09:31:04.283Z,6.47
2023-03-02T09:33:32.149Z,6.63
2023-03-02T09:36:01.556Z,6.68
2023-03-02T09:38:29.043Z,7.20
2023-03-02T09:41:17.947Z,7.47
2023-03-02T09:44:11.536Z,6.25
2023-03-02T09:47:05.769Z,6.65
2023-03-02T09:50:05.897Z,7.28
2023-03-02T09:52:40.801Z,6.30
2023-03-02T09:55:22.516Z,6.93
2023-03-02T09:57:50.866Z,7.13
2023-03-02T10:00:31.225Z,6.55
2023-03-02T10:03:14.773Z,6.82
2023-03-02T10:05:47.225Z,6.72
2023-03-02T10:08:16.426Z,6.72
2023-03-02T10:11:04.189Z,7.20
2023-03-02T10:13:47.593Z,7.55
2023-03-02T10:16:24.270Z,7.35
2023-03-02T10:18:56.204Z,7.20
2023-03-02T10:21:41.316Z,6.57
2023-03-02T10:24:35.337Z,6.40
2023-03-02T10:27:30.118Z,6.40
2023-03-02T10:30:16.115Z,7.32
2023-03-02T10:32:49.966Z,6.97
2023-03-02T10:35:21.220Z,7.20
2023-03-02T10:37:57.409Z,7.47
2023-03-02T10:40:45.981Z,6.78
2023-03-02T10:43:19.119Z,6.80
2023-03-02T10:45:57.691Z,7.07
2023-03-02T10:48:25.218Z,6.82
2023-03-02T10:50:57.366Z,6.90
2023-03-02T10:53:25.176Z,6.82
2023-03-02T10:55:53.981Z,7.22
2023-03-02T10:58:41.159Z,6.72
2023-03-02T11:01:18.438Z,7.00
2023-03-02T11:04:00.172Z,7.30
2023-03-02T11:06:29.442Z,6.72
2023-03-02T11:09:07.657Z,7.35
2023-03-02T11:11:36.622Z,7.00
2023-03-02T11:14:30.618Z,7.07
2023-03-02T11:17:01.855Z,6.80
2023-03-02T11:19:36.575Z,6.60
2023-03-02T11:24:49.706Z,8.00
2023-03-02T11:27:22.794Z,6.75
2023-03-02T11:30:01.003Z,8.13
2023-03-02T11:32:34.624Z,7.00
2023-03-02T11:35:30.920Z,7.20
2023-03-02T11:38:08.772Z,7.18
2023-03-02T11:41:00.361Z,7.25
2023-03-02T11:43:27.959Z,7.38
2023-03-02T11:46:10.887Z,6.95
2023-03-02T11:48:49.231Z,7.40
2023-03-02T11:51:27.855Z,7.10
2023-03-02T11:54:04.836Z,7.32
2023-03-02T11:56:35.297Z,7.30
2023-03-02T11:59:08.145Z,6.78
2023-03-02T12:01:38.133Z,7.25
2023-03-02T12:04:25.220Z,6.97
2023-03-02T12:06:52.901Z,7.43
2023-03-02T12:09:23.487Z,7.40
2023-03-02T12:12:33.109Z,7.30
2023-03-02T12:15:01.276Z,7.80
2023-03-02T12:17:30.119Z,6.43
2023-03-02T12:20:09.363Z,7.07
2023-03-02T12:22:37.842Z,7.22
2023-03-02T12:25:28.035Z,7.45
2023-03-02T12:27:55.922Z,7.22
2023-03-02T12:30:27.974Z,7.35
2023-03-02T12:33:10.232Z,8.07
2023-03-02T12:35:38.591Z,8.57
2023-03-02T12:38:31.071Z,9.27
2023-03-02T12:41:20.220Z,9.77
2023-03-02T12:44:13.603Z,9.90
2023-03-02T12:46:46.893Z,9.57
2023-03-02T12:49:36.411Z,9.00
2023-03-02T12:52:38.671Z,8.10
2023-03-02T12:55:26.905Z,8.48
2023-03-02T12:57:57.222Z,7.82
2023-03-02T13:00:27.627Z,6.85
2023-03-02T13:02:57.255Z,7.43
2023-03-02T13:05:28.423Z,7.00
2023-03-02T13:08:05.245Z,7.07
2023-03-02T13:10:40.520Z,7.47
2023-03-02T13:13:18.302Z,6.35
2023-03-02T13:15:53.064Z,6.95
2023-03-02T13:18:22.609Z,6.57
2023-03-02T13:20:51.672Z,6.95
2023-03-02T13:23:20.024Z,7.45
2023-03-02T13:26:00.703Z,7.03
2023-03-02T13:28:34.562Z,7.45
2023-03-02T13:31:04.047Z,7.13
2023-03-02T13:33:33.606Z,6.90
2023-03-02T13:36:01.636Z,6.63
2023-03-02T13:38:37.334Z,6.82
2023-03-02T13:41:05.304Z,7.30
2023-03-02T13:43:38.625Z,7.93
2023-03-02T13:46:11.998Z,7.80
2023-03-02T13:48:39.568Z,7.45
2023-03-02T13:51:18.252Z,7.47
2023-03-02T13:53:56.129Z,7.25
2023-03-02T13:56:51.303Z,7.68
2023-03-02T13:59:21.208Z,8.10
2023-03-02T14:01:48.932Z,6.78
2023-03-02T14:04:19.316Z,7.13
2023-03-02T14:06:47.177Z,7.57
2023-03-02T14:09:15.090Z,7.65
2023-03-02T14:11:45.340Z,7.38
2023-03-02T14:14:16.791Z,7.15
2023-03-02T14:16:44.337Z,7.85
2023-03-02T14:19:18.598Z,7.85
2023-03-02T14:21:47.504Z,7.72
2023-03-02T14:24:15.093Z,6.97
2023-03-02T14:26:44.740Z,7.40
2023-03-02T14:29:28.209Z,7.07
2023-03-02T14:31:57.093Z,6.93
2023-03-02T14:34:24.563Z,7.40
2023-03-02T14:36:54.787Z,6.65
2023-03-02T14:39:30.668Z,6.72
2023-03-02T14:42:00.998Z,6.85
2023-03-02T14:44:28.584Z,6.45
2023-03-02T14:46:57.801Z,6.28
2023-03-02T14:49:25.491Z,7.05
2023-03-02T14:51:59.214Z,6.22
2023-03-02T14:54:27.717Z,6.90
2023-03-02T14:56:55.341Z,6.38
2023-03-02T14:59:22.875Z,5.88
2023-03-02T15:01:50.310Z,6.35
2023-03-02T15:04:17.753Z,6.97
2023-03-02T15:06:46.619Z,6.18
2023-03-02T15:09:14.265Z,6.07
2023-03-02T15:11:41.855Z,6.32
2023-03-02T15:14:09.570Z,5.80
2023-03-02T15:16:37.098Z,5.82
2023-03-02T15:19:04.536Z,5.78
2023-03-02T15:21:32.337Z,6.22
2023-03-02T15:24:00.117Z,6.30
2023-03-02T15:26:27.887Z,6.47
2023-03-02T15:28:55.529Z,6.65
2023-03-02T15:31:23.018Z,6.38
2023-03-02T15:33:52.163Z,6.80
2023-03-02T15:36:19.678Z,7.38
2023-03-02T15:38:50.840Z,7.05
2023-03-02T15:41:18.656Z,6.38
2023-03-02T15:43:53.467Z,7.05
2023-03-02T15:46:22.422Z,6.38
2023-03-02T15:48:53.680Z,6.13
2023-03-02T15:51:21.542Z,6.60
2023-03-02T15:53:49.090Z,6.38
2023-03-02T15:56:17.195Z,6.47
2023-03-02T15:58:49.071Z,6.80
2023-03-02T16:01:16.911Z,6.25
2023-03-02T16:03:45.731Z,6.68
2023-03-02T16:06:15.761Z,6.80
2023-03-02T16:08:43.309Z,6.93
2023-03-02T16:11:11.013Z,6.72
2023-03-02T16:13:38.609Z,6.72
2023-03-02T16:16:06.568Z,6.95
2023-03-02T16:18:34.916Z,6.45
2023-03-02T16:21:03.607Z,6.13
2023-03-02T16:23:31.150Z,7.00
2023-03-02T16:26:09.045Z,5.32
2023-03-02T16:28:36.972Z,6.03
2023-03-02T16:31:09.715Z,6.25
2023-03-02T16:33:37.988Z,6.50
2023-03-02T16:36:05.941Z,6.97
2023-03-02T16:38:33.819Z,5.88
2023-03-02T16:41:01.524Z,6.15
2023-03-02T16:43:29.069Z,5.78
2023-03-02T16:45:56.578Z,6.28
2023-03-02T16:48:24.094Z,5.50
2023-03-02T16:50:56.466Z,5.65
2023-03-02T16:53:24.121Z,5.85
2023-03-02T16:55:51.839Z,5.60
2023-03-02T16:58:19.465Z,5.28
2023-03-02T17:00:47.042Z,5.30
2023-03-02T17:03:15.147Z,6.40
2023-03-02T17:05:43.665Z,6.05
2023-03-02T17:08:12.006Z,5.57
2023-03-02T17:10:39.852Z,5.85
2023-03-02T17:13:07.891Z,5.85
2023-03-02T17:15:35.710Z,5.70
2023-03-02T17:18:03.243Z,5.70
2023-03-02T17:20:30.868Z,5.95
2023-03-02T17:22:58.250Z,5.70
2023-03-02T17:25:25.780Z,6.22
2023-03-02T17:27:53.531Z,6.20
2023-03-02T17:30:21.300Z,6.50
2023-03-02T17:32:48.929Z,6.18
2023-03-02T17:35:16.870Z,6.25
2023-03-02T17:37:44.465Z,5.85
2023-03-02T17:40:13.935Z,5.60
2023-03-02T17:42:41.563Z,5.65
2023-03-02T17:45:15.317Z,5.72
2023-03-02T17:47:42.738Z,5.70
2023-03-02T17:50:11.161Z,5.40
2023-03-02T17:52:38.562Z,5.68
2023-03-02T17:55:07.056Z,6.13
2023-03-02T17:57:34.685Z,5.40
2023-03-02T18:00:03.097Z,6.40
2023-03-02T18:02:30.601Z,6.22
2023-03-02T18:04:58.140Z,5.55
2023-03-02T18:07:25.832Z,6.07
2023-03-02T18:09:53.362Z,5.60
2023-03-02T18:12:20.910Z,5.78
2023-03-02T18:14:48.716Z,6.18
2023-03-02T18:17:16.330Z,6.75
2023-03-02T18:19:43.892Z,5.65
2023-03-02T18:22:11.652Z,6.32
2023-03-02T18:24:39.374Z,5.80
2023-03-02T18:27:06.861Z,6.28
2023-03-02T18:29:34.308Z,8.57
2023-03-02T18:32:01.804Z,6.78
2023-03-02T18:34:29.276Z,6.72
2023-03-02T18:36:56.734Z,6.45
2023-03-02T18:39:24.250Z,6.45
2023-03-02T18:41:51.877Z,5.93
2023-03-02T18:44:20.111Z,6.13
2023-03-02T18:46:47.816Z,7.03
2023-03-02T18:49:15.478Z,7.32
2023-03-02T18:51:43.450Z,7.18
2023-03-02T18:54:11.327Z,7.07
2023-03-02T18:56:40.661Z,7.30
2023-03-02T18:59:09.679Z,7.28
2023-03-02T19:01:37.427Z,7.35
2023-03-02T19:04:05.850Z,7.65
2023-03-02T19:06:33.549Z,8.10
2023-03-02T19:09:01.114Z,7.55
2023-03-02T19:11:28.710Z,7.38
2023-03-02T19:13:56.159Z,7.20
2023-03-02T19:16:23.807Z,6.43
2023-03-02T19:18:51.422Z,6.72
2023-03-02T19:21:19.163Z,7.03
2023-03-02T19:23:46.729Z,6.85
2023-03-02T19:26:14.277Z,7.15
2023-03-02T19:28:41.718Z,6.75
2023-03-02T19:31:11.649Z,7.18
2023-03-02T19:33:40.444Z,7.53
2023-03-02T19:36:08.447Z,7.72
2023-03-02T19:38:40.869Z,8.10
2023-03-02T19:41:10.623Z,7.60
2023-03-02T19:43:38.311Z,7.55
2023-03-02T19:46:06.133Z,7.95
2023-03-02T19:48:35.716Z,7.65
2023-03-02T19:51:05.201Z,7.95
2023-03-02T19:53:33.437Z,7.65
2023-03-02T19:56:09.120Z,8.57
2023-03-02T19:58:36.742Z,7.57
2023-03-02T20:01:04.447Z,8.77
2023-03-02T20:03:31.911Z,8.90
2023-03-02T20:05:59.773Z,8.68
2023-03-02T20:08:27.403Z,8.43
2023-03-02T20:10:55.126Z,8.15
2023-03-02T20:13:22.647Z,8.27
2023-03-02T20:15:51.312Z,8.32
2023-03-02T20:18:20.491Z,8.45
2023-03-02T20:20:48.711Z,7.50
2023-03-02T20:23:17.766Z,8.68
2023-03-02T20:25:47.931Z,9.32
2023-03-02T20:28:18.665Z,8.23
2023-03-02T20:30:52.156Z,8.60
2023-03-02T20:33:23.212Z,8.63
2023-03-02T20:35:52.041Z,8.70
2023-03-02T20:38:29.380Z,8.40
2023-03-02T20:40:57.757Z,8.82
2023-03-02T20:43:25.711Z,8.07
2023-03-02T20:45:53.589Z,8.57
2023-03-02T20:48:22.468Z,7.88
2023-03-02T20:50:51.057Z,8.68
2023-03-02T20:53:20.047Z,8.23
2023-03-02T20:55:47.901Z,8.25
2023-03-02T20:58:15.875Z,8.18
2023-03-02T21:00:43.704Z,8.48
2023-03-02T21:03:11.539Z,9.05
2023-03-02T21:05:41.069Z,8.90
2023-03-02T21:08:12.750Z,9.32
2023-03-02T21:10:41.410Z,9.05
2023-03-02T21:13:09.515Z,9.50
2023-03-02T21:15:37.492Z,9.23
2023-03-02T21:18:05.532Z,9.27
2023-03-02T21:20:34.364Z,8.95
2023-03-02T21:23:01.948Z,9.88
2023-03-02T21:25:29.656Z,9.63
2023-03-02T21:27:57.999Z,10.30
2023-03-02T21:30:28.859Z,9.18
2023-03-02T21:32:56.722Z,9.48
2023-03-02T21:35:24.935Z,9.45
2023-03-02T21:37:56.200Z,9.80
2023-03-02T21:40:31.326Z,10.27
2023-03-02T21:43:00.659Z,10.18
2023-03-02T21:45:29.268Z,10.43
2023-03-02T21:47:57.267Z,10.95
2023-03-02T21:50:28.568Z,10.15
2023-03-02T21:52:59.395Z,10.02
2023-03-02T21:55:28.369Z,10.82
2023-03-02T21:57:56.610Z,10.73
2023-03-02T22:00:25.629Z,10.75
2023-03-02T22:02:53.438Z,10.75
2023-03-02T22:05:21.053Z,10.75
2023-03-02T22:07:48.726Z,10.90
2023-03-02T22:10:31.102Z,11.77
2023-03-02T22:13:24.566Z,10.88
2023-03-02T22:16:14.891Z,11.52
2023-03-02T22:18:44.452Z,10.98
2023-03-02T22:21:34.752Z,11.73
2023-03-02T22:24:13.889Z,11.18
2023-03-02T22:26:47.648Z,11.13
2023-03-02T22:29:17.999Z,10.73
2023-03-02T22:31:48.210Z,11.40
2023-03-02T22:34:23.260Z,10.82
2023-03-02T22:36:51.020Z,11.60
2023-03-02T22:39:30.611Z,11.93
2023-03-02T22:42:12.295Z,11.35
2023-03-02T22:44:40.398Z,11.52
2023-03-02T22:47:17.200Z,10.80
2023-03-02T22:49:45.841Z,11.23
2023-03-02T22:52:24.520Z,11.43
2023-03-02T22:54:52.049Z,11.30
2023-03-02T22:57:25.426Z,11.30
2023-03-02T22:59:58.889Z,10.20
2023-03-02T23:02:26.846Z,11.75
2023-03-02T23:04:54.544Z,11.98
2023-03-02T23:07:22.739Z,13.05
2023-03-02T23:09:50.380Z,11.30
2023-03-02T23:12:26.310Z,12.25
2023-03-02T23:14:56.183Z,12.48
2023-03-02T23:17:26.850Z,11.85
2023-03-02T23:19:54.351Z,12.25
2023-03-02T23:22:21.815Z,12.30
2023-03-02T23:24:49.721Z,12.43
2023-03-02T23:27:17.247Z,12.90
2023-03-02T23:29:44.701Z,12.70
2023-03-02T23:32:12.513Z,13.35
2023-03-02T23:34:40.005Z,11.85
2023-03-02T23:37:07.575Z,12.50
2023-03-02T23:39:35.448Z,12.15
2023-03-02T23:42:02.930Z,12.13
2023-03-02T23:44:30.383Z,11.80
2023-03-02T23:46:58.181Z,12.07
2023-03-02T23:49:25.837Z,13.13
2023-03-02T23:51:53.467Z,13.23
2023-03-02T23:54:20.982Z,13.15
2023-03-02T23:56:48.431Z,13.30
2023-03-02T23:59:15.940Z,12.77
